createdAt,value
2023-05-05T00:00:29.406Z,16.1395
2023-05-05T00:01:32.070Z,16.0311
2023-05-05T00:02:34.661Z,15.9353
2023-05-05T00:03:37.267Z,15.9631
2023-05-05T00:04:37.197Z,15.9490
2023-05-05T00:05:39.914Z,16.0636
2023-05-05T00:06:42.566Z,16.1477
2023-05-05T00:07:45.092Z,16.1695
2023-05-05T00:08:47.599Z,16.2463
2023-05-05T00:09:50.134Z,16.0420
2023-05-05T00:10:52.774Z,15.7598
2023-05-05T00:11:55.367Z,15.7121
2023-05-05T00:12:57.901Z,15.6305
2023-05-05T00:14:00.396Z,15.6555
2023-05-05T00:15:02.875Z,15.6475
2023-05-05T00:16:05.367Z,15.6196
2023-05-05T00:17:07.878Z,15.4999
2023-05-05T00:18:10.375Z,15.4878
2023-05-05T00:19:12.879Z,15.4708
2023-05-05T00:20:15.449Z,15.5030
2023-05-05T00:21:17.944Z,15.5092
2023-05-05T00:22:20.538Z,15.4808
2023-05-05T00:23:23.217Z,15.5752
2023-05-05T00:24:25.745Z,15.6063
2023-05-05T00:25:28.290Z,15.5612
2023-05-05T00:26:30.838Z,15.4893
2023-05-05T00:27:33.332Z,15.4214
2023-05-05T00:28:35.839Z,15.4327
2023-05-05T00:29:38.368Z,15.4967
2023-05-05T00:30:40.933Z,15.5299
2023-05-05T00:31:43.524Z,15.4587
2023-05-05T00:32:46.120Z,15.4677
2023-05-05T00:33:48.612Z,15.4695
2023-05-05T00:34:51.130Z,15.5042
2023-05-05T00:35:53.638Z,15.4223
2023-05-05T00:36:56.132Z,15.4378
2023-05-05T00:37:58.709Z,15.4958
2023-05-05T00:39:01.246Z,15.5831
2023-05-05T00:40:03.913Z,15.5577
2023-05-05T00:41:06.388Z,15.5343
2023-05-05T00:42:08.967Z,15.5577
2023-05-05T00:43:11.511Z,15.5237
2023-05-05T00:44:14.082Z,15.5478
2023-05-05T00:45:16.655Z,15.5502
2023-05-05T00:46:19.589Z,15.3695
2023-05-05T00:47:19.269Z,15.4117
2023-05-05T00:48:21.740Z,15.4899
2023-05-05T00:49:24.278Z,15.5497
2023-05-05T00:50:26.762Z,15.4263
2023-05-05T00:51:29.316Z,15.3372
2023-05-05T00:52:31.813Z,15.3356
2023-05-05T00:53:34.383Z,15.3521
2023-05-05T00:54:36.956Z,15.4276
2023-05-05T00:55:39.577Z,15.4436
2023-05-05T00:56:42.075Z,15.3759
2023-05-05T00:57:44.628Z,15.3106
2023-05-05T00:58:47.245Z,15.3818
2023-05-05T00:59:47.332Z,15.3721
2023-05-05T01:00:49.860Z,15.2186
2023-05-05T01:01:52.498Z,15.0978
2023-05-05T01:02:55.237Z,15.2340
2023-05-05T01:03:55.331Z,15.3296
2023-05-05T01:04:57.841Z,15.2827
2023-05-05T01:06:00.425Z,15.2777
2023-05-05T01:07:03.003Z,15.3085
2023-05-05T01:08:05.611Z,15.2623
2023-05-05T01:09:08.236Z,15.1993
2023-05-05T01:10:19.559Z,15.1862
2023-05-05T01:11:10.871Z,15.3514
2023-05-05T01:12:13.512Z,15.4151
2023-05-05T01:13:16.114Z,15.5042
2023-05-05T01:14:18.686Z,15.6486
2023-05-05T01:15:21.229Z,15.6371
2023-05-05T01:16:23.850Z,15.6163
2023-05-05T01:17:23.768Z,15.5547
2023-05-05T01:18:26.315Z,15.3962
2023-05-05T01:19:28.920Z,15.2335
2023-05-05T01:20:31.499Z,15.1096
2023-05-05T01:21:34.070Z,14.9607
2023-05-05T01:22:36.631Z,14.8474
2023-05-05T01:23:39.236Z,14.6710
2023-05-05T01:24:41.803Z,14.7140
2023-05-05T01:25:44.349Z,14.7490
2023-05-05T01:26:46.942Z,14.8080
2023-05-05T01:27:49.514Z,14.8911
2023-05-05T01:28:52.100Z,14.8063
2023-05-05T01:29:54.689Z,14.8175
2023-05-05T01:30:57.315Z,14.7680
2023-05-05T01:31:59.886Z,14.5633
2023-05-05T01:33:02.508Z,14.6030
2023-05-05T01:34:05.093Z,14.6787
2023-05-05T01:35:07.696Z,14.7065
2023-05-05T01:36:10.196Z,14.7084
2023-05-05T01:37:12.806Z,14.7756
2023-05-05T01:38:15.382Z,14.7138
2023-05-05T01:39:18.029Z,14.7440
2023-05-05T01:40:20.606Z,14.8010
2023-05-05T01:41:23.239Z,14.8269
2023-05-05T01:42:25.865Z,14.7936
2023-05-05T01:43:28.446Z,14.8135
2023-05-05T01:44:31.069Z,14.8487
2023-05-05T01:45:33.778Z,14.7929
2023-05-05T01:46:36.395Z,14.7707
2023-05-05T01:47:39.033Z,14.8661
2023-05-05T01:48:42.370Z,14.7298
2023-05-05T01:49:42.287Z,14.7388
2023-05-05T01:50:44.910Z,14.7025
2023-05-05T01:51:47.495Z,14.6971
2023-05-05T01:52:50.066Z,14.7200
2023-05-05T01:53:52.668Z,14.7698
2023-05-05T01:54:55.222Z,14.7286
2023-05-05T01:55:57.823Z,14.7867
2023-05-05T01:57:00.340Z,14.7945
2023-05-05T01:58:02.963Z,14.7202
2023-05-05T01:59:05.507Z,14.7288
2023-05-05T02:00:08.280Z,14.7194
2023-05-05T02:01:08.307Z,14.7800
2023-05-05T02:02:10.992Z,14.7417
2023-05-05T02:03:13.706Z,14.6089
2023-05-05T02:04:16.378Z,14.5046
2023-05-05T02:05:18.954Z,14.3870
2023-05-05T02:06:21.603Z,14.3189
2023-05-05T02:07:24.200Z,14.2554
2023-05-05T02:08:26.827Z,14.2837
2023-05-05T02:09:29.428Z,14.4069
2023-05-05T02:10:32.079Z,14.3693
2023-05-05T02:11:34.701Z,14.4890
2023-05-05T02:12:37.377Z,14.6451
2023-05-05T02:13:40.049Z,14.8182
2023-05-05T02:14:42.618Z,14.8518
2023-05-05T02:15:45.297Z,14.9108
2023-05-05T02:16:47.877Z,14.9762
2023-05-05T02:17:50.488Z,15.1335
2023-05-05T02:18:53.105Z,15.3548
2023-05-05T02:19:55.737Z,15.3769
2023-05-05T02:20:58.307Z,15.4498
2023-05-05T02:22:00.893Z,15.4670
2023-05-05T02:23:03.465Z,15.2877
2023-05-05T02:24:06.079Z,14.8915
2023-05-05T02:25:08.719Z,14.7396
2023-05-05T02:26:11.332Z,14.5822
2023-05-05T02:27:13.933Z,14.7455
2023-05-05T02:28:16.521Z,14.9015
2023-05-05T02:29:19.215Z,14.7431
2023-05-05T02:30:22.041Z,14.5920
2023-05-05T02:31:22.100Z,14.4430
2023-05-05T02:32:22.133Z,14.4046
2023-05-05T02:33:22.139Z,14.4828
2023-05-05T02:34:24.726Z,14.3112
2023-05-05T02:35:27.435Z,14.2349
2023-05-05T02:36:29.972Z,14.2170
2023-05-05T02:37:32.562Z,14.2459
2023-05-05T02:38:35.138Z,14.1735
2023-05-05T02:39:37.695Z,14.0966
2023-05-05T02:40:40.350Z,14.0810
2023-05-05T02:41:42.975Z,14.0027
2023-05-05T02:42:45.606Z,14.0604
2023-05-05T02:43:48.225Z,14.0648
2023-05-05T02:44:50.815Z,13.9933
2023-05-05T02:45:53.417Z,13.9939
2023-05-05T02:46:56.061Z,14.0270
2023-05-05T02:47:58.688Z,14.0702
2023-05-05T02:49:01.261Z,14.1126
2023-05-05T02:50:03.915Z,14.0637
2023-05-05T02:51:06.550Z,14.0081
2023-05-05T02:52:09.137Z,14.0237
2023-05-05T02:53:11.764Z,14.0585
2023-05-05T02:54:14.389Z,14.0975
2023-05-05T02:55:17.084Z,14.1454
2023-05-05T02:56:19.714Z,14.0125
2023-05-05T02:57:22.402Z,13.9834
2023-05-05T02:58:25.103Z,13.9953
2023-05-05T02:59:27.745Z,14.0476
2023-05-05T03:00:30.292Z,14.0585
2023-05-05T03:01:32.977Z,14.1256
2023-05-05T03:02:35.710Z,14.1968
2023-05-05T03:03:35.546Z,14.2557
2023-05-05T03:04:38.098Z,14.3362
2023-05-05T03:05:40.732Z,14.3734
2023-05-05T03:06:43.294Z,14.2597
2023-05-05T03:07:45.819Z,14.1807
2023-05-05T03:08:48.391Z,14.1952
2023-05-05T03:09:51.065Z,14.1310
2023-05-05T03:10:53.622Z,14.2255
2023-05-05T03:11:56.337Z,14.2601
2023-05-05T03:12:58.940Z,14.1528
2023-05-05T03:14:01.558Z,14.1418
2023-05-05T03:15:04.151Z,14.2411
2023-05-05T03:16:06.895Z,14.2831
2023-05-05T03:17:09.486Z,14.3717
2023-05-05T03:18:09.481Z,14.4004
2023-05-05T03:19:12.254Z,14.4988
2023-05-05T03:20:15.030Z,14.3286
2023-05-05T03:21:17.655Z,14.3326
2023-05-05T03:22:20.256Z,14.2011
2023-05-05T03:23:22.950Z,14.2139
2023-05-05T03:24:25.594Z,14.2571
2023-05-05T03:25:28.219Z,14.1536
2023-05-05T03:26:30.828Z,14.1092
2023-05-05T03:27:33.438Z,14.0896
2023-05-05T03:28:35.991Z,14.1871
2023-05-05T03:29:38.592Z,14.2916
2023-05-05T03:30:41.198Z,14.2989
2023-05-05T03:31:43.886Z,14.4615
2023-05-05T03:32:46.505Z,14.5897
2023-05-05T03:33:49.041Z,14.5602
2023-05-05T03:34:51.603Z,14.6190
2023-05-05T03:35:54.165Z,14.6168
2023-05-05T03:36:56.744Z,14.7224
2023-05-05T03:37:59.273Z,14.6229
2023-05-05T03:39:01.777Z,14.5311
2023-05-05T03:40:04.347Z,14.4781
2023-05-05T03:41:06.921Z,14.5451
2023-05-05T03:42:09.533Z,14.5885
2023-05-05T03:43:12.065Z,14.5890
2023-05-05T03:44:14.675Z,14.5856
2023-05-05T03:45:17.259Z,14.6136
2023-05-05T03:46:19.886Z,14.6416
2023-05-05T03:47:22.474Z,14.6439
2023-05-05T03:48:25.061Z,14.6854
2023-05-05T03:49:27.634Z,14.7058
2023-05-05T03:50:30.216Z,14.7383
2023-05-05T03:51:32.789Z,14.7544
2023-05-05T03:52:35.372Z,14.8131
2023-05-05T03:53:38.025Z,14.8270
2023-05-05T03:54:40.608Z,14.9381
2023-05-05T03:55:43.246Z,14.9996
2023-05-05T03:56:45.816Z,14.9974
2023-05-05T03:57:48.457Z,15.0036
2023-05-05T03:58:51.056Z,14.9560
2023-05-05T03:59:53.610Z,14.9355
2023-05-05T04:00:56.208Z,14.8140
2023-05-05T04:01:58.829Z,14.7899
2023-05-05T04:03:01.523Z,14.6890
2023-05-05T04:04:04.208Z,14.6797
2023-05-05T04:05:06.760Z,14.6237
2023-05-05T04:06:09.338Z,14.5338
2023-05-05T04:07:11.917Z,14.4778
2023-05-05T04:08:14.491Z,14.5101
2023-05-05T04:09:17.035Z,14.5326
2023-05-05T04:10:19.660Z,14.5579
2023-05-05T04:11:22.264Z,14.5557
2023-05-05T04:12:24.886Z,14.6163
2023-05-05T04:13:27.429Z,14.6822
2023-05-05T04:14:29.991Z,14.5881
2023-05-05T04:15:32.555Z,14.4578
2023-05-05T04:16:35.127Z,14.4179
2023-05-05T04:17:37.813Z,14.4280
2023-05-05T04:18:40.407Z,14.4611
2023-05-05T04:19:43.020Z,14.3585
2023-05-05T04:20:45.594Z,14.2069
2023-05-05T04:21:48.190Z,14.1751
2023-05-05T04:22:52.597Z,14.1859
2023-05-05T04:23:52.718Z,14.2223
2023-05-05T04:24:55.334Z,14.2876
2023-05-05T04:25:57.900Z,14.2949
2023-05-05T04:27:00.495Z,14.3529
2023-05-05T04:28:03.117Z,14.4191
2023-05-05T04:29:05.676Z,14.4120
2023-05-05T04:30:08.520Z,14.3192
2023-05-05T04:31:08.458Z,14.3725
2023-05-05T04:32:11.134Z,14.4753
2023-05-05T04:33:13.761Z,14.4446
2023-05-05T04:34:16.394Z,14.5289
2023-05-05T04:35:18.962Z,14.5860
2023-05-05T04:36:18.994Z,14.5947
2023-05-05T04:37:19.268Z,14.5699
2023-05-05T04:38:21.879Z,14.6263
2023-05-05T04:39:24.437Z,14.6930
2023-05-05T04:40:26.971Z,14.7030
2023-05-05T04:41:30.153Z,14.5885
2023-05-05T04:42:30.057Z,14.5492
2023-05-05T04:43:32.735Z,14.5850
2023-05-05T04:44:35.319Z,14.5845
2023-05-05T04:45:37.866Z,14.6272
2023-05-05T04:46:40.504Z,14.5698
2023-05-05T04:47:43.090Z,14.6130
2023-05-05T04:48:45.626Z,14.5210
2023-05-05T04:49:48.217Z,14.5224
2023-05-05T04:50:50.785Z,14.4728
2023-05-05T04:51:53.511Z,14.4755
2023-05-05T04:52:56.095Z,14.4581
2023-05-05T04:53:58.669Z,14.4483
2023-05-05T04:55:01.266Z,14.4541
2023-05-05T04:56:03.867Z,14.3322
2023-05-05T04:57:06.437Z,14.2914
2023-05-05T04:58:09.070Z,14.2007
2023-05-05T04:59:11.676Z,14.2120
2023-05-05T05:00:14.271Z,14.2698
2023-05-05T05:01:16.849Z,14.3919
2023-05-05T05:02:19.597Z,14.3783
2023-05-05T05:03:19.552Z,14.3736
2023-05-05T05:04:19.508Z,14.4430
2023-05-05T05:05:22.281Z,14.5380
2023-05-05T05:06:24.908Z,14.7037
2023-05-05T05:07:27.488Z,14.7338
2023-05-05T05:08:30.076Z,14.6754
2023-05-05T05:09:32.706Z,14.4836
2023-05-05T05:10:35.433Z,14.4584
2023-05-05T05:11:37.990Z,14.3028
2023-05-05T05:12:40.635Z,14.1384
2023-05-05T05:13:43.169Z,14.1200
2023-05-05T05:14:45.746Z,14.1072
2023-05-05T05:15:48.301Z,14.1213
2023-05-05T05:16:50.924Z,14.0541
2023-05-05T05:17:53.601Z,14.0241
2023-05-05T05:18:56.211Z,13.9707
2023-05-05T05:19:58.801Z,13.9130
2023-05-05T05:21:01.435Z,13.9172
2023-05-05T05:22:04.012Z,13.8767
2023-05-05T05:23:06.720Z,13.8714
2023-05-05T05:24:09.260Z,13.9158
2023-05-05T05:25:11.853Z,13.8128
2023-05-05T05:26:14.402Z,13.7906
2023-05-05T05:27:17.019Z,13.8997
2023-05-05T05:28:19.640Z,13.9121
2023-05-05T05:29:22.236Z,14.0060
2023-05-05T05:30:24.802Z,14.0287
2023-05-05T05:31:27.372Z,14.0895
2023-05-05T05:32:30.019Z,14.1282
2023-05-05T05:33:32.657Z,14.1717
2023-05-05T05:34:35.474Z,14.1057
2023-05-05T05:35:35.279Z,14.1557
2023-05-05T05:36:37.878Z,14.1648
2023-05-05T05:37:40.496Z,14.1740
2023-05-05T05:38:43.177Z,14.1893
2023-05-05T05:39:45.793Z,14.2144
2023-05-05T05:40:48.379Z,14.1838
2023-05-05T05:41:51.043Z,14.1673
2023-05-05T05:42:53.686Z,14.1872
2023-05-05T05:43:56.320Z,14.2386
2023-05-05T05:44:59.120Z,14.2908
2023-05-05T05:45:58.889Z,14.2151
2023-05-05T05:47:01.501Z,14.3461
2023-05-05T05:48:04.101Z,14.3279
2023-05-05T05:49:06.681Z,14.3424
2023-05-05T05:50:09.478Z,14.3311
2023-05-05T05:51:09.413Z,14.3936
2023-05-05T05:52:11.992Z,14.4828
2023-05-05T05:53:14.574Z,14.5688
2023-05-05T05:54:17.170Z,14.6791
2023-05-05T05:55:19.728Z,14.6980
2023-05-05T05:56:22.275Z,14.7728
2023-05-05T05:57:24.899Z,14.8510
2023-05-05T05:58:27.528Z,14.8866
2023-05-05T05:59:30.185Z,14.9437
2023-05-05T06:00:32.944Z,14.9863
2023-05-05T06:01:32.920Z,14.9397
2023-05-05T06:02:35.626Z,15.0164
2023-05-05T06:03:38.441Z,15.1084
2023-05-05T06:04:38.329Z,15.1713
2023-05-05T06:05:40.965Z,15.1913
2023-05-05T06:06:43.623Z,15.2927
2023-05-05T06:07:46.280Z,15.2136
2023-05-05T06:08:48.959Z,15.2680
2023-05-05T06:09:51.591Z,15.2527
2023-05-05T06:10:54.280Z,15.2367
2023-05-05T06:11:56.981Z,15.3911
2023-05-05T06:12:59.693Z,15.3998
2023-05-05T06:13:59.604Z,15.3435
2023-05-05T06:15:02.266Z,15.3266
2023-05-05T06:16:05.007Z,15.3905
2023-05-05T06:17:07.575Z,15.4603
2023-05-05T06:18:10.414Z,15.4669
2023-05-05T06:19:10.455Z,15.5297
2023-05-05T06:20:13.047Z,15.6367
2023-05-05T06:21:15.687Z,15.6631
2023-05-05T06:22:18.467Z,15.8211
2023-05-05T06:23:18.295Z,15.8630
2023-05-05T06:24:21.075Z,15.9550
2023-05-05T06:25:20.919Z,16.0517
2023-05-05T06:26:23.554Z,16.1158
2023-05-05T06:27:26.154Z,16.2766
2023-05-05T06:28:28.788Z,16.1827
2023-05-05T06:29:31.388Z,16.3356
2023-05-05T06:30:33.995Z,16.4627
2023-05-05T06:31:36.691Z,16.3930
2023-05-05T06:32:39.451Z,16.4954
2023-05-05T06:33:42.101Z,16.6475
2023-05-05T06:34:44.723Z,16.8435
2023-05-05T06:35:47.354Z,16.7705
2023-05-05T06:36:50.151Z,16.7779
2023-05-05T06:37:52.779Z,16.9593
2023-05-05T06:38:55.445Z,16.8709
2023-05-05T06:39:58.075Z,16.8806
2023-05-05T06:41:00.737Z,16.8256
2023-05-05T06:42:03.428Z,16.9641
2023-05-05T06:43:06.083Z,17.1250
2023-05-05T06:44:08.718Z,17.1396
2023-05-05T06:45:11.358Z,16.9401
2023-05-05T06:46:11.386Z,17.0723
2023-05-05T06:47:11.361Z,17.1851
2023-05-05T06:48:11.327Z,16.9280
2023-05-05T06:49:13.990Z,17.1545
2023-05-05T06:50:16.593Z,17.0480
2023-05-05T06:51:19.200Z,17.1024
2023-05-05T06:52:21.991Z,17.2182
2023-05-05T06:53:21.800Z,17.2667
2023-05-05T06:54:24.357Z,17.1549
2023-05-05T06:55:27.013Z,17.3173
2023-05-05T06:56:29.634Z,17.2332
2023-05-05T06:57:32.244Z,17.4141
2023-05-05T06:58:34.874Z,17.2338
2023-05-05T06:59:37.465Z,16.9832
2023-05-05T07:00:40.070Z,17.2567
2023-05-05T07:01:42.667Z,17.3769
2023-05-05T07:02:45.340Z,17.4517
2023-05-05T07:03:48.032Z,17.5527
2023-05-05T07:04:47.988Z,17.5235
2023-05-05T07:05:50.622Z,17.5266
2023-05-05T07:06:53.272Z,17.7092
2023-05-05T07:07:55.850Z,17.6214
2023-05-05T07:08:58.452Z,17.3865
2023-05-05T07:10:01.087Z,17.4910
2023-05-05T07:11:03.790Z,17.7650
2023-05-05T07:12:06.416Z,17.6494
2023-05-05T07:13:09.079Z,17.7445
2023-05-05T07:14:09.077Z,17.8388
2023-05-05T07:15:26.052Z,17.6406
2023-05-05T07:16:11.917Z,17.4094
2023-05-05T07:17:14.532Z,17.4282
2023-05-05T07:18:17.165Z,17.5048
2023-05-05T07:19:19.820Z,17.4535
2023-05-05T07:20:22.415Z,17.6015
2023-05-05T07:21:25.082Z,17.5559
2023-05-05T07:22:27.659Z,17.5083
2023-05-05T07:23:30.239Z,17.5980
2023-05-05T07:24:32.866Z,17.5745
2023-05-05T07:25:35.486Z,17.6599
2023-05-05T07:26:38.232Z,17.7374
2023-05-05T07:27:40.777Z,17.7600
2023-05-05T07:28:43.385Z,17.7081
2023-05-05T07:29:46.015Z,17.6777
2023-05-05T07:30:48.622Z,17.6485
2023-05-05T07:31:51.393Z,17.6560
2023-05-05T07:32:51.356Z,17.7490
2023-05-05T07:33:51.264Z,17.7464
2023-05-05T07:34:53.850Z,17.8903
2023-05-05T07:35:56.456Z,17.8873
2023-05-05T07:36:59.112Z,17.7248
2023-05-05T07:38:01.686Z,17.8021
2023-05-05T07:39:04.317Z,17.6442
2023-05-05T07:40:07.169Z,17.6875
2023-05-05T07:41:07.186Z,17.7064
2023-05-05T07:42:09.819Z,17.7739
2023-05-05T07:43:12.464Z,17.9074
2023-05-05T07:44:15.041Z,17.8195
2023-05-05T07:45:17.659Z,17.8206
2023-05-05T07:46:20.336Z,17.9014
2023-05-05T07:47:20.225Z,17.8134
2023-05-05T07:48:22.779Z,17.9744
2023-05-05T07:49:25.405Z,18.0351
2023-05-05T07:50:28.040Z,17.9826
2023-05-05T07:51:32.023Z,18.0385
2023-05-05T07:52:45.365Z,17.9688
2023-05-05T07:53:33.119Z,17.9441
2023-05-05T07:54:35.818Z,17.9144
2023-05-05T07:55:38.349Z,17.8615
2023-05-05T07:56:40.999Z,17.7743
2023-05-05T07:57:43.726Z,17.8270
2023-05-05T07:58:46.325Z,17.9103
2023-05-05T07:59:48.977Z,17.9145
2023-05-05T08:00:51.606Z,17.8848
2023-05-05T08:01:55.037Z,17.9903
2023-05-05T08:02:55.016Z,17.9548
2023-05-05T08:03:57.626Z,18.1630
2023-05-05T08:05:00.241Z,18.1863
2023-05-05T08:06:02.804Z,18.2375
2023-05-05T08:07:05.376Z,18.2169
2023-05-05T08:08:08.141Z,18.1025
2023-05-05T08:09:10.685Z,17.9711
2023-05-05T08:10:13.308Z,18.0342
2023-05-05T08:11:15.935Z,18.1080
2023-05-05T08:12:18.494Z,18.0845
2023-05-05T08:13:21.175Z,18.1065
2023-05-05T08:14:23.770Z,18.1850
2023-05-05T08:15:26.372Z,18.1193
2023-05-05T08:16:28.996Z,18.1762
2023-05-05T08:17:31.571Z,18.1796
2023-05-05T08:18:34.240Z,18.3455
2023-05-05T08:19:36.763Z,18.3341
2023-05-05T08:20:39.373Z,18.4167
2023-05-05T08:21:41.973Z,18.3008
2023-05-05T08:22:44.642Z,18.5836
2023-05-05T08:23:47.298Z,18.5989
2023-05-05T08:24:49.903Z,18.6620
2023-05-05T08:25:52.509Z,18.7728
2023-05-05T08:26:55.126Z,18.7631
2023-05-05T08:27:55.402Z,18.7449
2023-05-05T08:28:58.064Z,18.7456
2023-05-05T08:30:00.600Z,18.6447
2023-05-05T08:31:03.237Z,18.6852
2023-05-05T08:32:05.801Z,18.8735
2023-05-05T08:33:08.467Z,18.9074
2023-05-05T08:34:11.073Z,19.0131
2023-05-05T08:35:13.859Z,19.0299
2023-05-05T08:36:13.970Z,19.0129
2023-05-05T08:37:16.629Z,18.7404
2023-05-05T08:38:19.189Z,18.7912
2023-05-05T08:39:21.767Z,19.1638
2023-05-05T08:40:24.290Z,19.3317
2023-05-05T08:41:26.915Z,19.3768
2023-05-05T08:42:37.253Z,19.2633
2023-05-05T08:43:29.540Z,19.4154
2023-05-05T08:44:32.122Z,19.4247
2023-05-05T08:45:34.718Z,19.3864
2023-05-05T08:46:37.353Z,19.4926
2023-05-05T08:47:39.966Z,19.3930
2023-05-05T08:48:42.589Z,19.2545
2023-05-05T08:49:45.312Z,19.3550
2023-05-05T08:50:47.855Z,19.4903
2023-05-05T08:51:50.447Z,19.6487
2023-05-05T08:52:51.383Z,19.7506
2023-05-05T08:53:51.306Z,19.6949
2023-05-05T08:54:53.887Z,19.8656
2023-05-05T08:55:56.515Z,19.7897
2023-05-05T08:56:59.065Z,19.5143
2023-05-05T08:58:01.673Z,19.5409
2023-05-05T08:59:04.323Z,19.5293
2023-05-05T09:00:06.878Z,19.7579
2023-05-05T09:01:09.479Z,19.8111
2023-05-05T09:02:12.058Z,19.5962
2023-05-05T09:03:14.728Z,19.5636
2023-05-05T09:04:14.661Z,19.4500
2023-05-05T09:05:17.202Z,19.6171
2023-05-05T09:06:19.739Z,19.3099
2023-05-05T09:07:22.322Z,19.5730
2023-05-05T09:08:24.887Z,19.6349
2023-05-05T09:09:27.390Z,19.5819
2023-05-05T09:10:29.990Z,19.4850
2023-05-05T09:11:32.577Z,19.5632
2023-05-05T09:12:35.138Z,19.9440
2023-05-05T09:13:37.647Z,20.0072
2023-05-05T09:14:40.192Z,19.6961
2023-05-05T09:15:42.720Z,19.7881
2023-05-05T09:16:45.297Z,20.2882
2023-05-05T09:17:47.893Z,20.2710
2023-05-05T09:18:50.485Z,20.1318
2023-05-05T09:19:53.026Z,20.0599
2023-05-05T09:20:56.878Z,19.9771
2023-05-05T09:21:55.759Z,20.0567
2023-05-05T09:22:58.296Z,19.7897
2023-05-05T09:24:07.433Z,19.7483
2023-05-05T09:25:00.913Z,19.6934
2023-05-05T09:26:03.505Z,19.5076
2023-05-05T09:27:06.030Z,19.8784
2023-05-05T09:28:08.656Z,20.2297
2023-05-05T09:29:11.190Z,20.3581
2023-05-05T09:30:13.776Z,20.2942
2023-05-05T09:31:16.517Z,20.2827
2023-05-05T09:32:16.403Z,20.2569
2023-05-05T09:33:19.026Z,20.2405
2023-05-05T09:34:21.547Z,20.2711
2023-05-05T09:35:24.095Z,20.1524
2023-05-05T09:36:24.034Z,20.2625
2023-05-05T09:37:26.622Z,20.1911
2023-05-05T09:38:29.168Z,20.0703
2023-05-05T09:39:31.799Z,19.8909
2023-05-05T09:40:34.407Z,19.6320
2023-05-05T09:41:36.944Z,19.8635
2023-05-05T09:42:39.460Z,19.8873
2023-05-05T09:43:40.292Z,20.2609
2023-05-05T09:44:42.832Z,20.4479
2023-05-05T09:45:45.409Z,20.3652
2023-05-05T09:46:48.044Z,20.3295
2023-05-05T09:47:47.913Z,20.4793
2023-05-05T09:48:47.841Z,20.8779
2023-05-05T09:49:50.354Z,21.1311
2023-05-05T09:50:52.923Z,20.7218
2023-05-05T09:51:55.534Z,20.5807
2023-05-05T09:52:58.076Z,20.3301
2023-05-05T09:54:00.664Z,20.3743
2023-05-05T09:55:03.236Z,20.5024
2023-05-05T09:56:05.902Z,20.3637
2023-05-05T09:57:08.527Z,20.3131
2023-05-05T09:58:11.128Z,20.3970
2023-05-05T09:59:13.672Z,20.4606
2023-05-05T10:00:16.230Z,20.6623
2023-05-05T10:01:18.855Z,21.0400
2023-05-05T10:02:21.404Z,20.8276
2023-05-05T10:03:23.953Z,20.8288
2023-05-05T10:04:26.528Z,20.9326
2023-05-05T10:05:29.109Z,20.9790
2023-05-05T10:06:31.733Z,21.3243
2023-05-05T10:07:34.264Z,20.9752
2023-05-05T10:08:36.777Z,21.1210
2023-05-05T10:09:39.258Z,20.8243
2023-05-05T10:10:41.882Z,20.7839
2023-05-05T10:11:44.405Z,21.0794
2023-05-05T10:12:46.955Z,21.5692
2023-05-05T10:13:49.497Z,21.3493
2023-05-05T10:14:52.010Z,21.0378
2023-05-05T10:15:54.583Z,20.7232
2023-05-05T10:16:57.103Z,20.6309
2023-05-05T10:18:06.720Z,20.5958
2023-05-05T10:18:59.611Z,20.9186
2023-05-05T10:20:02.157Z,21.3861
2023-05-05T10:21:04.737Z,21.7872
2023-05-05T10:22:07.283Z,21.3731
2023-05-05T10:23:09.833Z,21.3885
2023-05-05T10:24:12.418Z,21.4941
2023-05-05T10:25:14.929Z,21.4233
2023-05-05T10:26:17.458Z,22.0160
2023-05-05T10:27:19.997Z,21.6640
2023-05-05T10:28:22.568Z,21.7778
2023-05-05T10:29:25.094Z,22.2386
2023-05-05T10:30:27.623Z,21.8361
2023-05-05T10:31:30.323Z,22.2258
2023-05-05T10:32:51.150Z,22.0136
2023-05-05T10:33:32.906Z,22.1700
2023-05-05T10:34:35.540Z,22.4780
2023-05-05T10:35:38.081Z,21.4725
2023-05-05T10:36:40.602Z,21.8303
2023-05-05T10:37:43.137Z,22.0198
2023-05-05T10:38:45.690Z,21.6776
2023-05-05T10:39:48.236Z,21.6554
2023-05-05T10:40:50.756Z,21.3931
2023-05-05T10:41:53.321Z,21.1085
2023-05-05T10:42:55.832Z,21.2221
2023-05-05T10:43:58.358Z,21.0235
2023-05-05T10:45:00.946Z,21.0672
2023-05-05T10:46:00.907Z,21.2987
2023-05-05T10:47:00.990Z,21.6103
2023-05-05T10:48:03.638Z,21.8029
2023-05-05T10:49:03.443Z,21.3962
2023-05-05T10:50:06.135Z,21.4499
2023-05-05T10:51:05.978Z,21.4382
2023-05-05T10:52:08.647Z,21.5366
2023-05-05T10:53:08.485Z,21.5986
2023-05-05T10:54:11.072Z,21.4974
2023-05-05T10:55:13.664Z,22.0194
2023-05-05T10:56:16.184Z,21.4880
2023-05-05T10:57:18.802Z,21.5509
2023-05-05T10:58:21.368Z,21.6725
2023-05-05T10:59:23.923Z,21.6463
2023-05-05T11:00:26.479Z,21.8252
2023-05-05T11:01:29.205Z,21.9828
2023-05-05T11:02:29.159Z,22.4449
2023-05-05T11:03:29.056Z,22.8873
2023-05-05T11:04:31.727Z,22.1305
2023-05-05T11:05:34.292Z,22.1191
2023-05-05T11:06:36.880Z,22.3234
2023-05-05T11:07:39.480Z,22.2556
2023-05-05T11:08:42.032Z,22.4362
2023-05-05T11:09:44.637Z,22.5162
2023-05-05T11:10:47.205Z,21.7984
2023-05-05T11:11:49.754Z,22.2655
2023-05-05T11:12:52.498Z,22.1270
2023-05-05T11:13:52.540Z,22.2407
2023-05-05T11:14:55.090Z,22.7023
2023-05-05T11:15:57.615Z,23.0056
2023-05-05T11:17:00.163Z,23.1582
2023-05-05T11:18:06.640Z,22.8758
2023-05-05T11:19:04.305Z,23.2465
2023-05-05T11:20:06.983Z,23.6571
2023-05-05T11:21:07.077Z,23.7414
2023-05-05T11:22:09.936Z,23.8604
2023-05-05T11:23:09.788Z,23.8633
2023-05-05T11:24:10.590Z,24.1702
2023-05-05T11:25:13.196Z,24.5252
2023-05-05T11:26:15.668Z,24.6921
2023-05-05T11:27:18.183Z,24.1875
2023-05-05T11:28:18.011Z,24.6593
2023-05-05T11:29:20.474Z,24.5627
2023-05-05T11:30:22.990Z,24.1366
2023-05-05T11:31:25.510Z,24.5520
2023-05-05T11:32:27.969Z,25.4432
2023-05-05T11:33:30.461Z,24.9071
2023-05-05T11:34:32.860Z,24.0892
2023-05-05T11:35:35.321Z,24.4315
2023-05-05T11:36:37.742Z,24.1656
2023-05-05T11:37:40.193Z,24.6121
2023-05-05T11:38:42.643Z,24.5741
2023-05-05T11:39:45.027Z,24.8514
2023-05-05T11:40:47.518Z,24.2506
2023-05-05T11:41:49.954Z,25.1220
2023-05-05T11:42:52.422Z,23.5500
2023-05-05T11:43:54.807Z,23.3926
2023-05-05T11:44:57.250Z,23.9069
2023-05-05T11:45:59.682Z,24.5687
2023-05-05T11:47:02.094Z,24.9022
2023-05-05T11:48:04.583Z,24.9443
2023-05-05T11:49:04.408Z,25.0996
2023-05-05T11:50:04.368Z,25.7029
2023-05-05T11:51:03.977Z,25.8841
2023-05-05T11:52:06.402Z,25.0720
2023-05-05T11:53:08.794Z,24.7254
2023-05-05T11:54:11.335Z,25.5182
2023-05-05T11:55:13.742Z,24.9870
2023-05-05T11:56:16.241Z,24.6707
2023-05-05T11:57:18.626Z,24.5647
2023-05-05T11:58:21.018Z,23.8973
2023-05-05T11:59:20.820Z,24.7342
2023-05-05T12:00:20.740Z,24.1019
2023-05-05T12:01:20.701Z,24.1830
2023-05-05T12:02:20.655Z,22.9786
2023-05-05T12:03:20.685Z,23.8599
2023-05-05T12:04:20.765Z,24.1112
2023-05-05T12:05:20.705Z,23.7416
2023-05-05T12:06:20.699Z,23.8659
2023-05-05T12:07:20.705Z,24.2715
2023-05-05T12:08:20.708Z,24.3212
2023-05-05T12:09:20.701Z,24.0004
2023-05-05T12:10:20.701Z,24.3500
2023-05-05T12:11:20.678Z,25.1207
2023-05-05T12:12:20.689Z,25.2505
2023-05-05T12:13:20.806Z,24.8454
2023-05-05T12:14:20.876Z,24.4583
2023-05-05T12:15:20.837Z,25.3981
2023-05-05T12:16:20.849Z,24.6966
2023-05-05T12:17:20.766Z,24.5038
2023-05-05T12:18:20.766Z,25.2786
2023-05-05T12:19:20.705Z,24.9583
2023-05-05T12:20:20.611Z,24.4027
2023-05-05T12:21:20.564Z,24.4625
2023-05-05T12:22:20.501Z,24.0013
2023-05-05T12:23:20.481Z,24.1777
2023-05-05T12:24:20.412Z,24.5350
2023-05-05T12:25:20.410Z,25.2641
2023-05-05T12:26:20.366Z,25.7951
2023-05-05T12:27:20.295Z,25.6727
2023-05-05T12:28:20.387Z,25.9895
2023-05-05T12:29:20.347Z,25.1657
2023-05-05T12:30:20.315Z,26.0980
2023-05-05T12:31:20.278Z,25.3628
2023-05-05T12:32:20.231Z,26.1861